Time;durP1;ratioP1;P1;durP2;ratioP2;P2;SDS_P1;SDS_P2;PMS_P1;PMS_P2;Temp;Humidity;BMP_temperature;BMP_pressure;BME280_temperature;BME280_humidity;BME280_pressure;Samples;Min_cycle;Max_cycle;Signal;HPM_P1;HPM_P2
2021/07/03 00:01:03;;;;;;;8.60;6.15;;;;;;;20.13;97.25;98433.76;1606100;89;20954;-69
2021/07/03 00:03:30;;;;;;;4.97;4.47;;;;;;;20.02;97.62;98437.20;1606024;89;22148;-68
2021/07/03 00:05:56;;;;;;;6.40;3.85;;;;;;;19.89;97.79;98437.45;1606163;89;21728;-68
2021/07/03 00:08:27;;;;;;;5.58;3.87;;;;;;;19.76;98.02;98435.11;1605875;89;20922;-70
2021/07/03 00:10:52;;;;;;;6.10;3.37;;;;;;;19.68;98.21;98442.50;1606126;88;20994;-70
2021/07/03 00:13:18;;;;;;;3.52;2.40;;;;;;;19.58;98.68;98448.33;1605964;89;20925;-70
2021/07/03 00:15:45;;;;;;;5.95;3.40;;;;;;;19.48;98.71;98454.69;1605974;89;21064;-69
2021/07/03 00:18:13;;;;;;;5.60;2.70;;;;;;;19.37;98.62;98456.70;1606234;89;20914;-69
2021/07/03 00:20:40;;;;;;;9.65;3.27;;;;;;;19.25;98.27;98460.69;1606001;89;20929;-69
2021/07/03 00:23:07;;;;;;;4.45;3.33;;;;;;;19.13;98.44;98458.31;1606103;89;21005;-69
2021/07/03 00:25:35;;;;;;;7.60;3.62;;;;;;;19.04;98.92;98450.41;1605971;89;20910;-68
2021/07/03 00:28:02;;;;;;;7.47;3.30;;;;;;;19.01;99.30;98450.41;1606094;89;21544;-68
2021/07/03 00:30:28;;;;;;;4.20;3.02;;;;;;;18.96;99.53;98448.81;1605736;89;21498;-71
2021/07/03 00:32:55;;;;;;;9.78;3.77;;;;;;;18.93;99.42;98446.04;1605998;89;21021;-71
2021/07/03 00:35:21;;;;;;;5.05;3.15;;;;;;;18.87;99.66;98444.25;1605887;89;21481;-71
2021/07/03 00:37:48;;;;;;;5.42;3.10;;;;;;;18.86;99.57;98441.27;1605893;89;20977;-70
2021/07/03 00:40:15;;;;;;;7.08;3.65;;;;;;;18.82;99.70;98443.26;1605885;89;21054;-71
2021/07/03 00:42:42;;;;;;;6.45;3.22;;;;;;;18.82;99.70;98444.64;1606018;89;20966;-71
2021/07/03 00:45:10;;;;;;;7.22;3.00;;;;;;;18.80;99.40;98435.31;1605861;89;21065;-71
2021/07/03 00:47:36;;;;;;;6.62;3.20;;;;;;;18.78;99.23;98421.02;1606133;89;20958;-71
2021/07/03 00:50:09;;;;;;;5.58;3.92;;;;;;;18.76;99.50;98421.22;1605892;89;21453;-70
2021/07/03 00:52:38;;;;;;;5.58;4.17;;;;;;;18.72;99.60;98427.36;1616403;88;21699;-70
2021/07/03 00:55:07;;;;;;;8.45;3.60;;;;;;;18.68;99.84;98418.23;1605832;89;21615;-70
2021/07/03 00:57:36;;;;;;;8.80;3.42;;;;;;;18.62;99.36;98415.64;1616394;88;21360;-71
2021/07/03 01:00:03;;;;;;;6.10;3.22;;;;;;;18.55;99.15;98417.00;1562444;89;20934;-70
2021/07/03 01:02:31;;;;;;;9.15;3.75;;;;;;;18.47;99.06;98411.47;1610551;87;21044;-70
2021/07/03 01:04:58;;;;;;;6.10;3.80;;;;;;;18.43;99.90;98406.50;1605688;88;21709;-70
2021/07/03 01:07:28;;;;;;;8.73;3.22;;;;;;;18.41;100.00;98403.32;1604898;88;20978;-70
2021/07/03 01:09:55;;;;;;;4.53;3.10;;;;;;;18.41;100.00;98402.53;1658405;86;21024;-71
2021/07/03 01:12:22;;;;;;;9.28;3.77;;;;;;;18.39;100.00;98387.64;1658587;86;21050;-70
2021/07/03 01:14:49;;;;;;;9.68;3.90;;;;;;;18.35;100.00;98379.90;1658883;86;20894;-70
2021/07/03 01:17:18;;;;;;;10.03;3.25;;;;;;;18.30;100.00;98380.28;1623107;86;21558;-70
2021/07/03 01:19:48;;;;;;;5.65;3.35;;;;;;;18.28;100.00;98373.53;1594935;87;20969;-70
2021/07/03 01:22:15;;;;;;;8.18;3.65;;;;;;;18.26;100.00;98372.55;1612732;89;20961;-71
2021/07/03 01:24:42;;;;;;;6.78;3.42;;;;;;;18.24;100.00;98361.63;1612948;89;21678;-70
2021/07/03 01:27:11;;;;;;;7.08;3.30;;;;;;;18.22;100.00;98358.45;1612815;88;20997;-70
2021/07/03 01:29:39;;;;;;;5.42;3.52;;;;;;;18.21;100.00;98351.30;1612915;89;21144;-69
2021/07/03 01:32:07;;;;;;;4.53;3.40;;;;;;;18.21;100.00;98350.71;1612676;88;21258;-70
2021/07/03 01:34:35;;;;;;;11.22;4.00;;;;;;;18.21;100.00;98353.48;1612753;88;20950;-70
2021/07/03 01:37:04;;;;;;;9.53;4.42;;;;;;;18.22;100.00;98346.75;1612646;89;20930;-70
2021/07/03 01:39:33;;;;;;;9.78;3.60;;;;;;;18.23;100.00;98356.67;1612810;88;20890;-70
2021/07/03 01:42:01;;;;;;;8.33;3.92;;;;;;;18.24;100.00;98351.91;1612841;89;21149;-71
2021/07/03 01:44:30;;;;;;;6.05;3.67;;;;;;;18.21;100.00;98349.92;1612767;89;21069;-70
2021/07/03 01:46:59;;;;;;;9.68;3.47;;;;;;;18.16;100.00;98346.94;1612723;89;20973;-69
2021/07/03 01:49:27;;;;;;;13.22;4.05;;;;;;;18.14;100.00;98344.55;1612734;88;20934;-69
2021/07/03 01:51:55;;;;;;;5.78;3.70;;;;;;;18.14;100.00;98346.53;1623480;88;21441;-69
2021/07/03 01:54:22;;;;;;;9.03;4.10;;;;;;;18.13;100.00;98349.91;1612712;89;20997;-69
2021/07/03 01:56:59;;;;;;;12.63;4.20;;;;;;;18.13;100.00;98345.74;1612761;88;20961;-69
2021/07/03 01:59:20;;;;;;;6.00;3.72;;;;;;;18.15;100.00;98356.45;1609347;88;21556;-69
2021/07/03 02:01:53;;;;;;;8.68;3.58;;;;;;;18.12;100.00;98352.48;1613163;88;20953;-71
2021/07/03 02:04:20;;;;;;;8.80;4.40;;;;;;;18.11;100.00;98353.67;1623381;88;21025;-73
2021/07/03 02:06:47;;;;;;;9.78;3.62;;;;;;;18.09;100.00;98358.03;1612778;89;22184;-72
2021/07/03 02:09:16;;;;;;;11.22;4.03;;;;;;;18.04;100.00;98352.27;1613027;89;21433;-73
2021/07/03 02:11:44;;;;;;;8.83;3.80;;;;;;;18.04;100.00;98355.64;1612726;89;21445;-72
2021/07/03 02:14:13;;;;;;;10.58;4.10;;;;;;;18.08;100.00;98346.13;1613182;88;20970;-73
2021/07/03 02:16:43;;;;;;;7.85;4.20;;;;;;;18.14;100.00;98351.50;1613117;88;21445;-70
2021/07/03 02:19:10;;;;;;;7.28;3.87;;;;;;;18.20;100.00;98346.34;1612682;89;21159;-69
2021/07/03 02:21:38;;;;;;;6.28;3.65;;;;;;;18.24;100.00;98343.57;1612905;89;20938;-70
2021/07/03 02:24:06;;;;;;;8.58;3.62;;;;;;;18.25;100.00;98343.77;1612947;89;20962;-69
2021/07/03 02:26:32;;;;;;;7.40;3.92;;;;;;;18.20;100.00;98344.95;1612696;88;20953;-69
2021/07/03 02:28:58;;;;;;;6.47;3.90;;;;;;;18.15;100.00;98347.53;1632409;85;20981;-69
2021/07/03 02:31:27;;;;;;;6.30;3.60;;;;;;;18.09;100.00;98356.05;1617293;86;21145;-70
2021/07/03 02:33:55;;;;;;;5.60;4.42;;;;;;;18.07;100.00;98353.47;1613044;88;20910;-70
2021/07/03 02:36:22;;;;;;;6.87;4.50;;;;;;;18.03;100.00;98356.23;1612704;89;20969;-70
2021/07/03 02:38:49;;;;;;;9.55;4.67;;;;;;;18.00;100.00;98359.80;1601881;89;21543;-69
2021/07/03 02:41:17;;;;;;;7.87;4.70;;;;;;;17.97;100.00;98366.73;1612906;88;21528;-70
2021/07/03 02:43:44;;;;;;;8.93;4.85;;;;;;;17.92;100.00;98367.91;1613004;89;21202;-70
2021/07/03 02:46:12;;;;;;;9.88;4.42;;;;;;;17.91;100.00;98366.95;1612633;89;21473;-69
2021/07/03 02:48:39;;;;;;;11.33;5.33;;;;;;;17.94;100.00;98367.52;1644030;85;21021;-69
2021/07/03 02:51:05;;;;;;;8.00;4.85;;;;;;;17.96;100.00;98367.92;1646495;85;21478;-69
2021/07/03 02:53:33;;;;;;;12.47;5.20;;;;;;;17.98;100.00;98371.09;1631465;85;21447;-69
2021/07/03 02:56:01;;;;;;;6.37;5.08;;;;;;;18.00;100.00;98374.28;1653719;86;21131;-70
2021/07/03 02:58:28;;;;;;;11.05;5.78;;;;;;;18.00;100.00;98378.44;1655327;86;20993;-72
2021/07/03 03:00:56;;;;;;;9.35;5.22;;;;;;;18.02;100.00;98378.84;1639339;85;21009;-72
2021/07/03 03:03:25;;;;;;;6.33;4.85;;;;;;;18.07;100.00;98384.02;1612662;89;20962;-72
2021/07/03 03:05:52;;;;;;;6.10;5.03;;;;;;;18.10;100.00;98390.17;1612723;89;20961;-71
2021/07/03 03:08:18;;;;;;;8.85;4.95;;;;;;;18.10;100.00;98388.19;1612885;89;21117;-70
2021/07/03 03:10:45;;;;;;;4.75;4.28;;;;;;;18.11;100.00;98391.76;1612674;89;20965;-70
2021/07/03 03:13:11;;;;;;;6.67;4.70;;;;;;;18.12;100.00;98394.73;1612648;89;20998;-70
2021/07/03 03:15:38;;;;;;;7.97;4.75;;;;;;;18.15;100.00;98393.95;1612727;89;20922;-69
2021/07/03 03:18:05;;;;;;;9.20;5.17;;;;;;;18.18;100.00;98390.98;1623716;85;21084;-70
2021/07/03 03:20:34;;;;;;;7.03;5.40;;;;;;;18.17;100.00;98392.96;1643233;86;20958;-70
2021/07/03 03:23:02;;;;;;;6.28;5.58;;;;;;;18.22;100.00;98392.58;1658806;86;21025;-69
2021/07/03 03:25:28;;;;;;;12.65;6.20;;;;;;;18.29;100.00;98391.20;1655029;86;20922;-70
2021/07/03 03:27:57;;;;;;;10.32;5.85;;;;;;;18.35;100.00;98397.16;1655182;86;21069;-70
2021/07/03 03:30:24;;;;;;;15.08;6.10;;;;;;;18.34;100.00;98401.92;1655135;86;21448;-69
2021/07/03 03:32:50;;;;;;;9.00;5.08;;;;;;;18.36;100.00;98403.71;1658963;86;21108;-71
2021/07/03 03:35:17;;;;;;;14.30;5.67;;;;;;;18.40;100.00;98407.88;1655080;86;21836;-69
2021/07/03 03:37:44;;;;;;;9.35;5.70;;;;;;;18.44;100.00;98417.02;1655155;86;20918;-70
2021/07/03 03:40:14;;;;;;;9.80;5.60;;;;;;;18.45;100.00;98420.80;1655083;86;21032;-70
2021/07/03 03:42:40;;;;;;;14.25;5.78;;;;;;;18.49;100.00;98412.43;1655355;86;21419;-69
2021/07/03 03:45:09;;;;;;;6.75;5.60;;;;;;;18.52;100.00;98413.63;1641195;85;21157;-71
2021/07/03 03:47:36;;;;;;;11.25;5.87;;;;;;;18.51;100.00;98413.42;1612874;89;20922;-71
2021/07/03 03:50:06;;;;;;;9.88;4.95;;;;;;;18.52;100.00;98417.79;1612655;89;20914;-71
2021/07/03 03:52:32;;;;;;;10.72;5.53;;;;;;;18.51;100.00;98413.42;1612609;89;20993;-70
2021/07/03 03:55:01;;;;;;;9.00;5.62;;;;;;;18.51;100.00;98416.20;1612388;88;21044;-72
2021/07/03 03:57:31;;;;;;;12.53;5.87;;;;;;;18.53;100.00;98411.84;1624644;85;21144;-73
2021/07/03 04:00:00;;;;;;;8.17;4.77;;;;;;;18.58;100.00;98408.67;1631161;86;20937;-73
2021/07/03 04:02:26;;;;;;;8.93;5.12;;;;;;;18.63;100.00;98408.30;1638359;85;20973;-71
2021/07/03 04:04:54;;;;;;;11.50;5.22;;;;;;;18.65;100.00;98410.69;1616842;86;21563;-73
2021/07/03 04:07:22;;;;;;;13.75;6.50;;;;;;;18.64;100.00;98411.28;1617474;85;21128;-72
2021/07/03 04:09:49;;;;;;;7.80;5.20;;;;;;;18.69;100.00;98411.48;1636830;86;22194;-71
2021/07/03 04:12:17;;;;;;;7.42;5.22;;;;;;;18.72;100.00;98410.69;1612522;89;20949;-70
2021/07/03 04:14:44;;;;;;;10.88;5.47;;;;;;;18.78;100.00;98404.93;1612623;88;20965;-69
2021/07/03 04:17:10;;;;;;;7.90;5.95;;;;;;;18.80;100.00;98408.91;1612635;89;21014;-70
2021/07/03 04:19:39;;;;;;;7.70;5.55;;;;;;;18.84;100.00;98408.90;1612631;88;20977;-70
2021/07/03 04:22:06;;;;;;;6.97;5.25;;;;;;;18.89;100.00;98416.05;1612647;89;21538;-70
2021/07/03 04:24:32;;;;;;;10.18;6.33;;;;;;;18.93;100.00;98413.47;1612611;89;21457;-70
2021/07/03 04:26:59;;;;;;;8.48;6.17;;;;;;;18.96;100.00;98412.66;1612734;89;20977;-70
2021/07/03 04:29:26;;;;;;;10.15;6.53;;;;;;;19.00;100.00;98414.84;1612634;89;21445;-69
2021/07/03 04:31:53;;;;;;;8.10;6.05;;;;;;;19.08;100.00;98411.44;1612576;89;20949;-71
2021/07/03 04:34:19;;;;;;;6.20;5.15;;;;;;;19.16;100.00;98410.83;1612936;89;21935;-71
2021/07/03 04:36:45;;;;;;;9.83;5.20;;;;;;;19.16;100.00;98407.45;1612703;89;20909;-71
2021/07/03 04:39:11;;;;;;;6.47;4.30;;;;;;;19.16;100.00;98401.09;1612728;89;20978;-71
2021/07/03 04:41:38;;;;;;;5.33;3.92;;;;;;;19.18;100.00;98402.28;1614356;85;21013;-71
2021/07/03 04:44:08;;;;;;;7.90;5.80;;;;;;;19.22;100.00;98407.83;1624822;88;20914;-70
2021/07/03 04:46:35;;;;;;;5.33;4.47;;;;;;;19.29;99.71;98412.78;1612745;88;21128;-70
2021/07/03 04:49:02;;;;;;;4.67;3.98;;;;;;;19.41;99.25;98406.80;1612776;89;20918;-70
2021/07/03 04:51:29;;;;;;;5.95;4.35;;;;;;;19.55;98.76;98411.55;1612755;89;20953;-71
2021/07/03 04:53:55;;;;;;;7.83;3.30;;;;;;;19.67;97.13;98408.30;1612781;89;20977;-71
2021/07/03 04:56:22;;;;;;;5.33;3.75;;;;;;;19.79;95.83;98409.25;1612772;89;20958;-71
2021/07/03 04:58:49;;;;;;;4.75;3.50;;;;;;;19.95;94.97;98404.59;1612723;89;22060;-71
2021/07/03 05:01:15;;;;;;;4.28;3.50;;;;;;;20.06;92.67;98405.34;1612692;89;20962;-71
2021/07/03 05:03:41;;;;;;;6.97;4.20;;;;;;;20.16;92.51;98402.91;1613042;89;21508;-71
2021/07/03 05:06:08;;;;;;;4.12;3.22;;;;;;;20.21;91.59;98407.45;1612834;89;21060;-71
2021/07/03 05:08:35;;;;;;;7.25;3.55;;;;;;;20.29;91.60;98407.56;1613117;89;20965;-71
2021/07/03 05:11:03;;;;;;;4.53;3.45;;;;;;;20.40;90.72;98411.70;1612782;88;20878;-71
2021/07/03 05:13:30;;;;;;;5.15;3.47;;;;;;;20.48;89.75;98416.63;1612898;89;20961;-74
2021/07/03 05:15:56;;;;;;;4.37;3.77;;;;;;;20.51;88.52;98412.43;1623488;88;21089;-72
2021/07/03 05:18:24;;;;;;;6.60;3.70;;;;;;;20.53;88.42;98413.41;1612772;89;20966;-74
2021/07/03 05:20:51;;;;;;;4.17;3.10;;;;;;;20.50;87.98;98415.02;1612823;88;21069;-72
2021/07/03 05:23:18;;;;;;;5.12;3.80;;;;;;;20.52;87.44;98416.80;1612747;89;21172;-71
2021/07/03 05:25:45;;;;;;;8.13;4.50;;;;;;;20.58;86.50;98417.16;1612930;89;21513;-70
2021/07/03 05:28:13;;;;;;;9.60;4.40;;;;;;;20.64;87.18;98418.31;1612682;88;21005;-71
2021/07/03 05:30:40;;;;;;;6.58;3.98;;;;;;;20.69;87.12;98424.24;1612659;89;21016;-76
2021/07/03 05:33:07;;;;;;;5.55;4.60;;;;;;;20.74;85.97;98423.80;1623510;88;21504;-74
2021/07/03 05:35:35;;;;;;;9.83;4.83;;;;;;;20.77;85.83;98427.77;1612860;88;20970;-74
2021/07/03 05:38:02;;;;;;;6.92;4.85;;;;;;;20.81;85.99;98424.92;1612717;88;20913;-77
2021/07/03 05:40:29;;;;;;;11.08;4.78;;;;;;;20.80;85.86;98426.92;1612723;89;21013;-72
2021/07/03 05:42:55;;;;;;;10.75;5.50;;;;;;;20.79;86.49;98426.76;1612687;89;20930;-75
2021/07/03 05:45:23;;;;;;;7.95;5.72;;;;;;;20.80;86.89;98429.70;1612966;89;20886;-77
2021/07/03 05:47:52;;;;;;;6.58;5.55;;;;;;;20.83;87.19;98430.28;1612829;89;21782;-75
2021/07/03 05:50:24;;;;;;;7.95;6.00;;;;;;;20.83;86.79;98433.07;1612657;88;21017;-79
2021/07/03 05:52:51;;;;;;;10.68;5.90;;;;;;;20.80;86.33;98432.50;1612861;88;21001;-78
2021/07/03 05:55:17;;;;;;;7.78;5.72;;;;;;;20.77;87.07;98440.32;1612908;89;21036;-74
2021/07/03 05:57:44;;;;;;;8.95;5.30;;;;;;;20.79;87.57;98428.75;1612747;89;20958;-72
2021/07/03 06:00:12;;;;;;;7.90;5.50;;;;;;;20.87;88.06;98428.86;1612738;89;21560;-71
2021/07/03 06:02:41;;;;;;;6.40;5.35;;;;;;;20.93;87.44;98428.01;1612970;88;20968;-78
2021/07/03 06:05:09;;;;;;;7.25;5.08;;;;;;;21.00;85.94;98423.76;1612732;88;20945;-73
2021/07/03 06:07:35;;;;;;;13.32;4.78;;;;;;;21.04;85.10;98425.91;1613103;88;20890;-73
2021/07/03 06:10:01;;;;;;;6.90;5.17;;;;;;;21.13;85.72;98430.22;1612696;89;21536;-68
2021/07/03 06:12:28;;;;;;;9.78;4.72;;;;;;;21.33;85.81;98436.84;1613006;89;21498;-74
2021/07/03 06:14:54;;;;;;;8.00;4.85;;;;;;;21.57;85.11;98432.17;1612714;89;20949;-70
2021/07/03 06:17:22;;;;;;;6.37;4.40;;;;;;;21.77;83.72;98427.55;1618362;85;21043;-67
2021/07/03 06:19:48;;;;;;;7.55;5.58;;;;;;;21.91;82.59;98432.17;1630899;86;21033;-66
2021/07/03 06:22:15;;;;;;;8.30;4.58;;;;;;;21.93;81.90;98424.95;1629613;85;21434;-69
2021/07/03 06:24:42;;;;;;;6.75;4.60;;;;;;;22.06;81.75;98429.39;1637282;87;21136;-66
2021/07/03 06:27:09;;;;;;;7.67;3.80;;;;;;;22.24;82.09;98429.94;1637179;87;20963;-67
2021/07/03 06:29:35;;;;;;;5.55;3.58;;;;;;;22.41;79.00;98433.70;1638649;86;20957;-66
2021/07/03 06:32:03;;;;;;;7.37;3.95;;;;;;;22.44;79.49;98432.85;1637361;87;20936;-65
2021/07/03 06:34:30;;;;;;;4.75;3.92;;;;;;;22.46;78.59;98438.02;1637204;87;21054;-67
2021/07/03 06:36:57;;;;;;;4.30;3.47;;;;;;;22.44;77.33;98430.66;1637187;87;21125;-80
2021/07/03 06:39:24;;;;;;;4.17;3.05;;;;;;;22.52;77.28;98430.74;1637135;87;21067;-73
2021/07/03 06:41:50;;;;;;;5.83;2.87;;;;;;;22.65;74.85;98429.70;1618488;86;21563;-73
2021/07/03 06:44:18;;;;;;;5.30;3.25;;;;;;;22.74;73.46;98425.77;1642026;85;21602;-72
2021/07/03 06:46:46;;;;;;;5.78;3.10;;;;;;;22.82;73.55;98434.87;1627978;88;21035;-70
2021/07/03 06:49:14;;;;;;;5.00;3.20;;;;;;;22.98;71.78;98442.00;1628060;88;21777;-70
2021/07/03 06:51:43;;;;;;;6.45;3.83;;;;;;;23.14;71.95;98441.30;1627848;88;20937;-72
2021/07/03 06:54:09;;;;;;;4.47;3.35;;;;;;;23.30;72.84;98430.83;1631359;85;20957;-70
2021/07/03 06:56:35;;;;;;;5.12;3.33;;;;;;;23.38;71.52;98436.48;1612457;89;21490;-73
2021/07/03 06:59:02;;;;;;;5.50;4.17;;;;;;;23.36;71.91;98436.11;1646474;86;21532;-74
2021/07/03 07:01:29;;;;;;;6.28;3.62;;;;;;;23.29;72.44;98435.63;1620418;85;21126;-74
2021/07/03 07:03:55;;;;;;;5.65;4.12;;;;;;;23.20;72.43;98437.41;1629562;86;20961;-75
2021/07/03 07:06:22;;;;;;;5.87;3.65;;;;;;;23.10;72.63;98439.81;1612923;88;21041;-74
2021/07/03 07:08:48;;;;;;;3.98;3.58;;;;;;;23.05;72.87;98437.68;1612813;87;21057;-74
2021/07/03 07:11:14;;;;;;;7.58;3.50;;;;;;;22.99;73.37;98435.80;1614907;85;20886;-77
2021/07/03 07:13:42;;;;;;;3.90;3.02;;;;;;;22.98;74.11;98442.61;1642466;86;22005;-74
2021/07/03 07:16:08;;;;;;;4.15;3.02;;;;;;;22.95;75.36;98441.45;1628935;86;20989;-76
2021/07/03 07:18:35;;;;;;;7.00;2.92;;;;;;;22.89;74.00;98443.14;1625145;86;20979;-76
2021/07/03 07:21:02;;;;;;;3.85;2.67;;;;;;;22.76;73.62;98443.53;1647134;86;20969;-74
2021/07/03 07:23:28;;;;;;;2.85;2.37;;;;;;;22.74;73.36;98450.16;1653315;86;22281;-74
2021/07/03 07:25:55;;;;;;;3.15;2.62;;;;;;;22.78;72.66;98452.29;1653519;85;22140;-77
2021/07/03 07:28:21;;;;;;;3.30;2.22;;;;;;;22.85;71.71;98450.80;1645197;86;21021;-76
2021/07/03 07:30:47;;;;;;;5.80;2.90;;;;;;;22.89;72.09;98443.14;1643885;86;21048;-75
2021/07/03 07:33:14;;;;;;;5.40;3.50;;;;;;;22.99;72.54;98444.19;1654799;85;22151;-76
2021/07/03 07:35:40;;;;;;;4.25;2.20;;;;;;;23.19;72.48;98443.61;1654795;86;21098;-74
2021/07/03 07:38:06;;;;;;;3.40;2.15;;;;;;;23.53;73.28;98449.03;1654804;86;21125;-75
2021/07/03 07:40:33;;;;;;;4.33;2.50;;;;;;;23.80;69.00;98446.08;1643602;85;21018;-77
2021/07/03 07:42:59;;;;;;;3.83;2.00;;;;;;;23.83;68.03;98448.63;1625361;86;21049;-78
2021/07/03 07:45:26;;;;;;;2.40;2.10;;;;;;;23.76;68.49;98457.17;1621248;86;21133;-76
2021/07/03 07:47:52;;;;;;;2.77;2.47;;;;;;;23.65;68.53;98455.41;1620895;86;21049;-73
2021/07/03 07:50:19;;;;;;;3.00;2.12;;;;;;;23.57;68.46;98462.36;1631618;85;21513;-73
2021/07/03 07:52:45;;;;;;;5.12;2.40;;;;;;;23.49;68.86;98459.48;1648419;87;21015;-69
2021/07/03 07:55:12;;;;;;;4.22;2.02;;;;;;;23.51;69.57;98457.65;1648494;87;21496;-74
2021/07/03 07:57:39;;;;;;;5.97;2.10;;;;;;;23.64;69.23;98455.83;1633973;86;21048;-74
2021/07/03 08:00:08;;;;;;;4.03;2.80;;;;;;;23.86;68.87;98458.98;1635721;86;21584;-75
2021/07/03 08:02:37;;;;;;;2.50;2.30;;;;;;;24.12;66.50;98457.25;1654350;86;21138;-76
2021/07/03 08:05:04;;;;;;;5.15;1.80;;;;;;;24.25;63.99;98461.80;1653951;86;21009;-77
2021/07/03 08:07:31;;;;;;;2.42;2.22;;;;;;;24.31;65.06;98460.03;1654023;86;21033;-73
2021/07/03 08:09:59;;;;;;;3.65;2.12;;;;;;;24.40;64.26;98455.23;1650235;85;20995;-76
2021/07/03 08:12:25;;;;;;;2.30;2.10;;;;;;;24.52;65.99;98453.77;1618156;85;21088;-77
2021/07/03 08:14:51;;;;;;;4.37;2.30;;;;;;;24.77;63.53;98458.80;1678892;85;21533;-74
2021/07/03 08:17:19;;;;;;;2.83;1.70;;;;;;;24.98;63.14;98460.48;1681801;85;21032;-80
2021/07/03 08:19:45;;;;;;;4.85;2.30;;;;;;;25.27;61.38;98453.54;1682181;84;20937;-77
2021/07/03 08:22:12;;;;;;;5.28;2.33;;;;;;;25.57;61.24;98463.55;1682581;85;21009;-77
2021/07/03 08:24:38;;;;;;;8.08;2.58;;;;;;;25.83;61.42;98465.89;1682685;85;21065;-77
2021/07/03 08:27:05;;;;;;;2.50;1.98;;;;;;;25.92;60.10;98466.03;1682687;85;21140;-77
2021/07/03 08:29:32;;;;;;;3.62;2.00;;;;;;;25.77;59.46;98465.47;1682631;85;20950;-77
2021/07/03 08:31:58;;;;;;;3.12;2.12;;;;;;;25.56;59.87;98471.81;1682732;85;21044;-77
2021/07/03 08:34:25;;;;;;;1.77;1.67;;;;;;;25.44;60.56;98467.53;1674374;85;21000;-77
2021/07/03 08:36:51;;;;;;;9.23;2.22;;;;;;;25.45;62.36;98474.73;1643013;86;20946;-77
2021/07/03 08:39:18;;;;;;;3.20;2.25;;;;;;;25.49;61.30;98470.59;1655014;86;21949;-76
2021/07/03 08:41:44;;;;;;;9.38;2.45;;;;;;;25.63;61.38;98467.41;1655014;86;20961;-76
2021/07/03 08:44:11;;;;;;;3.15;2.40;;;;;;;25.99;61.31;98472.07;1655373;86;21010;-76
2021/07/03 08:46:37;;;;;;;4.47;2.12;;;;;;;26.46;58.96;98465.26;1655190;86;21060;-77
2021/07/03 08:49:04;;;;;;;2.55;1.90;;;;;;;26.76;57.97;98473.75;1655376;86;21489;-77
2021/07/03 08:51:31;;;;;;;4.00;2.20;;;;;;;26.87;58.45;98472.00;1655118;86;21658;-76
2021/07/03 08:53:57;;;;;;;5.58;2.27;;;;;;;26.81;58.84;98462.54;1655220;86;20929;-78
2021/07/03 08:56:23;;;;;;;3.77;2.30;;;;;;;26.71;59.36;98458.04;1655092;86;20886;-76
2021/07/03 08:58:50;;;;;;;3.02;2.35;;;;;;;26.56;59.62;98460.54;1655326;86;21076;-77
2021/07/03 09:01:16;;;;;;;3.33;1.82;;;;;;;26.31;59.69;98464.89;1655284;86;21478;-77
2021/07/03 09:03:53;;;;;;;3.08;1.98;;;;;;;26.04;60.22;98464.47;1655069;86;21542;-77
2021/07/03 09:06:31;;;;;;;2.40;2.00;;;;;;;25.81;60.26;98462.73;1655052;86;20941;-77
2021/07/03 09:09:00;;;;;;;3.22;2.47;;;;;;;25.63;60.40;98467.41;1655070;86;21548;-77
2021/07/03 09:11:26;;;;;;;3.05;2.30;;;;;;;25.56;61.93;98467.59;1655203;86;20955;-77
2021/07/03 09:14:00;;;;;;;3.15;2.30;;;;;;;25.56;63.21;98475.23;1655216;86;21514;-76
2021/07/03 09:16:35;;;;;;;5.00;2.27;;;;;;;25.69;62.46;98469.09;1655217;86;21144;-76
2021/07/03 09:19:04;;;;;;;2.92;1.92;;;;;;;25.99;61.70;98467.23;1655275;86;20965;-77
2021/07/03 09:21:31;;;;;;;2.55;2.17;;;;;;;26.42;60.64;98473.02;1655036;86;21010;-77
2021/07/03 09:23:59;;;;;;;3.55;2.20;;;;;;;26.94;59.39;98472.56;1655157;86;21013;-76
2021/07/03 09:26:25;;;;;;;2.70;1.92;;;;;;;27.41;57.81;98457.72;1655186;86;20990;-77
2021/07/03 09:28:52;;;;;;;3.37;2.30;;;;;;;27.68;55.18;98457.83;1655223;86;21526;-76
2021/07/03 09:31:19;;;;;;;2.77;2.12;;;;;;;27.72;55.34;98460.69;1655080;86;21607;-77
2021/07/03 09:33:51;;;;;;;1.95;1.82;;;;;;;27.56;55.37;98465.84;1655179;86;20973;-77
2021/07/03 09:36:29;;;;;;;11.55;2.10;;;;;;;27.26;55.54;98465.08;1655386;86;20981;-77
2021/07/03 09:38:58;;;;;;;2.20;2.00;;;;;;;27.08;56.65;98460.69;1655223;86;20902;-79
2021/07/03 09:41:33;;;;;;;4.83;2.25;;;;;;;26.89;56.22;98456.23;1655186;86;21161;-72
2021/07/03 09:44:01;;;;;;;4.50;2.02;;;;;;;26.68;56.01;98451.28;1655316;86;21021;-71
2021/07/03 09:46:41;;;;;;;5.00;1.90;;;;;;;26.54;57.65;98455.36;1655615;86;20981;-73
2021/07/03 09:49:13;;;;;;;3.67;2.08;;;;;;;26.38;58.68;98449.04;1642852;85;20918;-72
2021/07/03 09:51:50;;;;;;;3.00;2.10;;;;;;;26.41;57.68;98448.14;1626392;86;20934;-74
2021/07/03 09:54:19;;;;;;;2.35;2.00;;;;;;;26.72;56.70;98447.73;1612763;89;21704;-72
2021/07/03 09:56:45;;;;;;;3.35;2.12;;;;;;;27.28;53.41;98440.84;1613124;89;21534;-70
2021/07/03 09:59:12;;;;;;;4.28;2.10;;;;;;;27.46;53.36;98438.82;1612670;88;21033;-73
2021/07/03 10:01:44;;;;;;;3.77;1.95;;;;;;;27.40;52.48;98435.62;1613009;89;21505;-74
2021/07/03 10:04:10;;;;;;;3.00;1.98;;;;;;;27.33;52.59;98434.47;1612819;89;21072;-73
2021/07/03 10:06:50;;;;;;;2.70;2.17;;;;;;;27.29;53.19;98441.62;1613113;88;20997;-73
2021/07/03 10:09:36;;;;;;;4.22;2.55;;;;;;;27.45;53.64;98439.27;1612325;88;21498;-74
2021/07/03 10:12:09;;;;;;;2.37;1.70;;;;;;;27.78;52.50;98434.07;1644436;85;21100;-75
2021/07/03 10:14:44;;;;;;;3.67;1.70;;;;;;;28.23;52.53;98423.75;1640413;86;21497;-73
2021/07/03 10:17:11;;;;;;;3.62;1.72;;;;;;;28.57;51.60;98422.79;1626652;88;21029;-73
2021/07/03 10:19:40;;;;;;;2.83;1.82;;;;;;;28.82;50.78;98421.19;1628478;86;22114;-73
2021/07/03 10:22:20;;;;;;;3.50;1.85;;;;;;;29.15;49.14;98418.58;1628352;88;21580;-72
2021/07/03 10:24:57;;;;;;;2.47;1.52;;;;;;;29.38;48.97;98414.99;1628510;88;20906;-73
2021/07/03 10:27:31;;;;;;;2.77;1.60;;;;;;;29.33;47.86;98413.58;1648787;85;20941;-73
2021/07/03 10:30:01;;;;;;;2.05;1.50;;;;;;;29.07;47.73;98414.48;1655168;86;20953;-73
2021/07/03 10:32:33;;;;;;;3.42;1.70;;;;;;;28.82;47.88;98414.13;1655201;86;21134;-73
2021/07/03 10:35:18;;;;;;;;;;;;;;;28.54;49.03;98422.30;1653099;85;21029;-73
2021/07/03 10:37:45;;;;;;;1.82;1.65;;;;;;;28.20;49.22;98420.41;1649399;86;20160;-73
2021/07/03 10:40:23;;;;;;;2.62;1.52;;;;;;;28.04;50.36;98419.22;1648351;86;21097;-73
2021/07/03 10:42:53;;;;;;;3.80;2.17;;;;;;;28.24;50.42;98421.88;1647334;85;20985;-75
2021/07/03 10:45:23;;;;;;;4.92;2.42;;;;;;;28.64;49.69;98418.27;1647351;86;21102;-74
2021/07/03 10:47:51;;;;;;;3.72;2.00;;;;;;;28.89;48.92;98412.39;1655187;86;21584;-74
2021/07/03 10:50:27;;;;;;;1.30;1.20;;;;;;;28.89;47.78;98416.63;1655153;86;20965;-73
2021/07/03 10:52:55;;;;;;;3.08;1.62;;;;;;;28.77;46.59;98420.98;1658657;86;38901;-73
2021/07/03 10:55:31;;;;;;;2.45;1.65;;;;;;;28.58;47.20;98412.45;1655112;86;21537;-74
2021/07/03 10:57:58;;;;;;;3.55;1.70;;;;;;;28.62;49.74;98419.36;1655051;86;22734;-73
2021/07/03 11:00:24;;;;;;;2.75;1.62;;;;;;;28.94;49.47;98418.05;1655124;86;21476;-72
2021/07/03 11:02:51;;;;;;;1.70;1.42;;;;;;;29.17;48.81;98420.93;1655430;86;21009;-74
2021/07/03 11:05:18;;;;;;;3.77;1.55;;;;;;;29.49;47.74;98421.75;1643563;86;21030;-74
2021/07/03 11:07:46;;;;;;;2.92;1.62;;;;;;;29.72;46.80;98417.52;1637343;87;21046;-74
2021/07/03 11:10:27;;;;;;;2.45;1.45;;;;;;;30.01;46.21;98426.16;1637305;87;20999;-72
2021/07/03 11:12:56;;;;;;;3.75;1.47;;;;;;;30.20;47.40;98422.79;1643846;85;21552;-72
2021/07/03 11:15:27;;;;;;;2.47;2.10;;;;;;;30.27;47.15;98422.30;1682359;85;21026;-74
2021/07/03 11:17:59;;;;;;;2.27;1.50;;;;;;;30.02;45.66;98428.52;1682327;84;21065;-74
2021/07/03 11:20:31;;;;;;;1.67;1.57;;;;;;;29.63;47.04;98432.28;1682246;85;21053;-74
2021/07/03 11:22:58;;;;;;;2.90;1.40;;;;;;;29.25;47.75;98437.75;1663171;85;21052;-74
2021/07/03 11:25:31;;;;;;;2.15;1.70;;;;;;;29.00;49.04;98430.31;1682262;85;21017;-74
2021/07/03 11:28:19;;;;;;;3.08;1.60;;;;;;;28.86;50.32;98430.30;1626962;86;21055;-73
2021/07/03 11:30:48;;;;;;;1.85;1.60;;;;;;;28.81;50.30;98435.12;1633430;86;21065;-78
2021/07/03 11:33:14;;;;;;;3.33;1.72;;;;;;;29.02;49.07;98427.02;1654748;86;21046;-75